createdAt,value
2018-04-26T00:01:16.783Z,9.43
2018-04-26T00:03:44.324Z,9.97
2018-04-26T00:06:11.888Z,9.93
2018-04-26T00:08:39.756Z,10.53
2018-04-26T00:11:07.302Z,9.87
2018-04-26T00:13:34.897Z,10.20
2018-04-26T00:16:02.592Z,9.97
2018-04-26T00:18:30.140Z,10.23
2018-04-26T00:20:57.686Z,9.97
2018-04-26T00:23:25.408Z,10.27
2018-04-26T00:25:52.956Z,10.20
2018-04-26T00:28:20.509Z,10.00
2018-04-26T00:30:48.092Z,10.30
2018-04-26T00:33:15.631Z,9.83
2018-04-26T00:35:43.173Z,10.23
2018-04-26T00:38:10.737Z,9.40
2018-04-26T00:40:38.288Z,9.70
2018-04-26T00:43:05.827Z,9.60
2018-04-26T00:45:33.412Z,9.33
2018-04-26T00:48:01.043Z,8.57
2018-04-26T00:50:28.528Z,9.47
2018-04-26T00:52:56.107Z,9.07
2018-04-26T00:55:23.637Z,8.77
2018-04-26T00:57:51.178Z,9.13
2018-04-26T01:00:18.897Z,10.33
2018-04-26T01:02:46.437Z,9.43
2018-04-26T01:05:14.019Z,10.30
2018-04-26T01:07:41.738Z,9.93
2018-04-26T01:10:09.297Z,10.20
2018-04-26T01:12:36.836Z,9.97
2018-04-26T01:15:04.530Z,10.73
2018-04-26T01:17:32.091Z,10.07
2018-04-26T01:19:59.647Z,10.00
2018-04-26T01:22:27.224Z,9.97
2018-04-26T01:24:54.782Z,10.00
2018-04-26T01:27:22.337Z,10.30
2018-04-26T01:29:49.931Z,10.33
2018-04-26T01:32:17.492Z,10.43
2018-04-26T01:34:45.041Z,10.77
2018-04-26T01:37:24.792Z,10.93
2018-04-26T01:39:52.343Z,10.70
2018-04-26T01:42:19.884Z,10.77
2018-04-26T01:44:47.483Z,10.17
2018-04-26T01:47:15.032Z,9.93
2018-04-26T01:49:42.580Z,9.90
2018-04-26T01:52:10.128Z,9.10
2018-04-26T01:54:37.666Z,8.97
2018-04-26T01:57:05.483Z,9.47
2018-04-26T01:59:33.031Z,10.30
2018-04-26T02:02:00.581Z,9.00
2018-04-26T02:04:28.246Z,8.70
2018-04-26T02:06:55.784Z,9.03
2018-04-26T02:09:23.329Z,9.07
2018-04-26T02:11:50.927Z,8.63
2018-04-26T02:14:18.455Z,8.30
2018-04-26T02:16:45.979Z,8.27
2018-04-26T02:19:13.700Z,9.10
2018-04-26T02:21:41.246Z,9.63
2018-04-26T02:24:08.781Z,9.30
2018-04-26T02:26:36.348Z,9.13
2018-04-26T02:29:03.897Z,9.67
2018-04-26T02:31:31.440Z,9.23
2018-04-26T02:33:59.025Z,9.00
2018-04-26T02:36:26.563Z,9.37
2018-04-26T02:38:54.097Z,9.73
2018-04-26T02:41:21.813Z,9.33
2018-04-26T02:43:49.370Z,10.03
2018-04-26T02:46:16.916Z,9.20
2018-04-26T02:48:44.494Z,9.77
2018-04-26T02:51:12.039Z,9.33
2018-04-26T02:53:39.580Z,9.40
2018-04-26T02:56:07.193Z,9.53
2018-04-26T02:58:34.736Z,10.33
2018-04-26T03:01:02.279Z,9.93
2018-04-26T03:03:30.012Z,10.03
2018-04-26T03:05:57.558Z,10.27
2018-04-26T03:08:25.171Z,9.27
2018-04-26T03:10:52.877Z,9.97
2018-04-26T03:13:20.420Z,10.77
2018-04-26T03:15:47.968Z,10.63
2018-04-26T03:18:15.663Z,10.07
2018-04-26T03:20:43.203Z,10.70
2018-04-26T03:23:10.745Z,11.30
2018-04-26T03:25:38.337Z,11.27
2018-04-26T03:28:05.891Z,10.60
2018-04-26T03:30:33.432Z,11.00
2018-04-26T03:33:01.304Z,11.53
2018-04-26T03:35:28.855Z,10.70
2018-04-26T03:37:56.404Z,10.93
2018-04-26T03:40:23.996Z,10.17
2018-04-26T03:42:51.549Z,10.33
2018-04-26T03:45:19.092Z,9.77
2018-04-26T03:47:46.658Z,10.30
2018-04-26T03:50:14.239Z,9.50
2018-04-26T03:52:41.789Z,9.27
2018-04-26T03:55:09.386Z,9.47
2018-04-26T03:57:36.937Z,8.80
2018-04-26T04:00:16.278Z,7.97
2018-04-26T04:02:55.478Z,8.10
2018-04-26T04:05:34.923Z,8.60
2018-04-26T04:08:02.460Z,8.17
2018-04-26T04:10:30.000Z,7.23
2018-04-26T04:12:57.724Z,7.50
2018-04-26T04:15:25.299Z,7.37
2018-04-26T04:17:52.867Z,7.17
2018-04-26T04:20:20.455Z,6.97
2018-04-26T04:22:47.991Z,7.70
2018-04-26T04:25:15.538Z,7.20
2018-04-26T04:27:43.395Z,7.57
2018-04-26T04:30:10.969Z,7.20
2018-04-26T04:32:38.526Z,8.60
2018-04-26T04:35:06.125Z,9.80
2018-04-26T04:37:33.664Z,8.87
2018-04-26T04:40:01.213Z,9.47
2018-04-26T04:42:28.884Z,9.07
2018-04-26T04:44:56.422Z,9.53
2018-04-26T04:47:23.969Z,9.93
2018-04-26T04:49:51.565Z,10.03
2018-04-26T04:52:19.117Z,10.67
2018-04-26T04:54:46.677Z,10.40
2018-04-26T04:57:14.363Z,11.07
2018-04-26T04:59:41.906Z,10.30
2018-04-26T05:02:09.520Z,10.40
2018-04-26T05:04:37.223Z,10.30
2018-04-26T05:07:04.781Z,10.60
2018-04-26T05:09:32.323Z,9.88
2018-04-26T05:11:59.904Z,11.23
2018-04-26T05:14:27.445Z,10.43
2018-04-26T05:16:54.997Z,10.48
2018-04-26T05:19:22.567Z,10.55
2018-04-26T05:21:50.136Z,11.38
2018-04-26T05:24:17.675Z,11.15
2018-04-26T05:26:45.256Z,10.60
2018-04-26T05:29:12.811Z,11.85
2018-04-26T05:31:40.349Z,11.40
2018-04-26T05:34:07.937Z,11.53
2018-04-26T05:36:35.501Z,12.43
2018-04-26T05:39:03.058Z,12.83
2018-04-26T05:41:30.638Z,13.37
2018-04-26T05:43:58.242Z,13.40
2018-04-26T05:46:25.791Z,17.67
2018-04-26T05:48:53.525Z,14.03
2018-04-26T05:51:21.072Z,13.73
2018-04-26T05:53:48.620Z,13.67
2018-04-26T05:56:16.209Z,13.47
2018-04-26T05:58:43.750Z,14.47
2018-04-26T06:01:11.310Z,14.10
2018-04-26T06:03:38.949Z,14.20
2018-04-26T06:06:06.488Z,14.27
2018-04-26T06:08:34.040Z,13.47
2018-04-26T06:11:01.752Z,15.73
2018-04-26T06:13:29.301Z,15.63
2018-04-26T06:15:56.863Z,15.13
2018-04-26T06:18:24.729Z,13.73
2018-04-26T06:20:52.278Z,13.10
2018-04-26T06:23:19.837Z,12.97
2018-04-26T06:25:47.557Z,12.70
2018-04-26T06:28:15.244Z,13.60
2018-04-26T06:30:42.789Z,12.07
2018-04-26T06:33:10.365Z,12.37
2018-04-26T06:35:37.940Z,13.33
2018-04-26T06:38:05.506Z,12.57
2018-04-26T06:40:33.256Z,11.40
2018-04-26T06:43:00.819Z,11.07
2018-04-26T06:45:28.364Z,11.23
2018-04-26T06:47:56.129Z,10.90
2018-04-26T06:50:23.714Z,9.63
2018-04-26T06:52:51.291Z,11.27
2018-04-26T06:55:18.872Z,9.80
2018-04-26T06:57:46.423Z,11.03
2018-04-26T07:00:13.965Z,10.60
2018-04-26T07:02:41.541Z,11.00
2018-04-26T07:05:09.085Z,11.33
2018-04-26T07:07:36.640Z,12.30
2018-04-26T07:10:04.250Z,12.00
2018-04-26T07:12:31.812Z,12.27
2018-04-26T07:14:59.352Z,12.90
2018-04-26T07:17:26.937Z,12.67
2018-04-26T07:19:54.491Z,11.90
2018-04-26T07:22:22.118Z,13.03
2018-04-26T07:24:49.666Z,14.50
2018-04-26T07:27:17.208Z,14.60
2018-04-26T07:29:44.758Z,13.77
2018-04-26T07:32:12.611Z,14.90
2018-04-26T07:34:40.204Z,13.57
2018-04-26T07:37:07.752Z,12.60
2018-04-26T07:39:35.328Z,13.17
2018-04-26T07:42:02.880Z,13.33
2018-04-26T07:44:30.429Z,14.30
2018-04-26T07:46:58.041Z,14.90
2018-04-26T07:49:25.737Z,14.07
2018-04-26T07:51:53.279Z,14.17
2018-04-26T07:54:20.991Z,14.07
2018-04-26T07:56:48.566Z,14.67
2018-04-26T07:59:16.124Z,14.67
2018-04-26T08:01:43.714Z,16.00
2018-04-26T08:04:11.278Z,14.07
2018-04-26T08:06:38.835Z,14.87
2018-04-26T08:09:06.615Z,14.97
2018-04-26T08:11:34.177Z,14.80
2018-04-26T08:14:01.744Z,13.47
2018-04-26T08:16:29.612Z,15.40
2018-04-26T08:18:57.179Z,14.47
2018-04-26T08:21:24.732Z,15.70
2018-04-26T08:23:52.328Z,15.20
2018-04-26T08:26:20.773Z,13.57
2018-04-26T08:28:48.321Z,13.67
2018-04-26T08:31:15.928Z,13.87
2018-04-26T08:33:43.470Z,14.43
2018-04-26T08:36:11.096Z,14.53
2018-04-26T08:38:38.839Z,14.10
2018-04-26T08:41:06.447Z,12.70
2018-04-26T08:43:33.985Z,14.53
2018-04-26T08:46:01.713Z,13.80
2018-04-26T08:48:29.304Z,13.07
2018-04-26T08:50:56.848Z,12.80
2018-04-26T08:53:24.423Z,11.83
2018-04-26T08:55:51.977Z,11.33
2018-04-26T08:58:19.512Z,11.20
2018-04-26T09:00:47.104Z,12.00
2018-04-26T09:03:14.669Z,12.67
2018-04-26T09:05:42.219Z,11.23
2018-04-26T09:08:09.787Z,11.53
2018-04-26T09:10:37.331Z,11.13
2018-04-26T09:13:04.884Z,10.87
2018-04-26T09:15:32.562Z,10.10
2018-04-26T09:18:00.135Z,9.27
2018-04-26T09:20:27.684Z,8.27
2018-04-26T09:22:55.376Z,8.30
2018-04-26T09:25:22.930Z,8.17
2018-04-26T09:27:50.474Z,8.97
2018-04-26T09:30:18.053Z,10.63
2018-04-26T09:32:45.595Z,8.90
2018-04-26T09:35:13.156Z,9.03
2018-04-26T09:37:40.842Z,8.50
2018-04-26T09:40:08.386Z,8.93
2018-04-26T09:42:35.934Z,8.63
2018-04-26T09:45:03.675Z,8.60
2018-04-26T09:47:31.263Z,7.80
2018-04-26T09:49:58.793Z,10.90
2018-04-26T09:52:26.345Z,8.07
2018-04-26T09:54:53.885Z,7.27
2018-04-26T09:57:21.747Z,6.77
2018-04-26T09:59:49.295Z,7.80
2018-04-26T10:02:16.848Z,6.87
2018-04-26T10:04:50.174Z,6.70
2018-04-26T10:07:17.739Z,6.57
2018-04-26T10:09:45.280Z,5.70
2018-04-26T10:12:12.966Z,6.60
2018-04-26T10:14:40.496Z,4.67
2018-04-26T10:17:08.048Z,5.10
2018-04-26T10:19:35.621Z,5.17
2018-04-26T10:22:03.160Z,6.53
2018-04-26T10:24:30.707Z,6.67
2018-04-26T10:26:58.283Z,6.30
2018-04-26T10:29:25.823Z,6.93
2018-04-26T10:31:53.399Z,7.17
2018-04-26T10:34:20.969Z,6.20
2018-04-26T10:36:48.523Z,6.03
2018-04-26T10:39:16.127Z,6.60
2018-04-26T10:41:43.709Z,5.97
2018-04-26T10:44:11.280Z,7.13
2018-04-26T10:46:38.820Z,6.43
2018-04-26T10:49:06.517Z,6.40
2018-04-26T10:51:34.075Z,6.63
2018-04-26T10:54:01.666Z,6.40
2018-04-26T10:56:29.390Z,5.40
2018-04-26T10:58:56.950Z,5.53
2018-04-26T11:01:24.493Z,5.70
2018-04-26T11:03:52.079Z,5.77
2018-04-26T11:06:19.620Z,6.40
2018-04-26T11:08:47.159Z,4.97
2018-04-26T11:11:14.795Z,5.00
2018-04-26T11:13:42.324Z,3.97
2018-04-26T11:16:09.897Z,4.20
2018-04-26T11:18:37.629Z,4.50
2018-04-26T11:21:05.163Z,4.47
2018-04-26T11:23:32.715Z,4.60
2018-04-26T11:26:00.596Z,5.57
2018-04-26T11:28:28.145Z,6.03
2018-04-26T11:30:55.759Z,5.30
2018-04-26T11:33:23.396Z,5.60
2018-04-26T11:35:50.947Z,5.83
2018-04-26T11:38:18.492Z,5.17
2018-04-26T11:40:46.210Z,5.63
2018-04-26T11:43:13.756Z,4.67
2018-04-26T11:45:41.312Z,5.40
2018-04-26T11:48:08.915Z,5.43
2018-04-26T11:50:36.482Z,5.50
2018-04-26T11:53:04.023Z,7.33
2018-04-26T11:55:31.601Z,5.00
2018-04-26T11:57:59.147Z,5.20
2018-04-26T12:00:26.742Z,5.37
2018-04-26T12:02:54.332Z,4.90
2018-04-26T12:05:21.911Z,5.60
2018-04-26T12:07:49.584Z,5.70
2018-04-26T12:10:17.201Z,6.60
2018-04-26T12:12:44.758Z,5.50
2018-04-26T12:15:12.308Z,5.30
2018-04-26T12:17:39.969Z,5.60
2018-04-26T12:20:07.462Z,5.10
2018-04-26T12:22:34.994Z,5.20
2018-04-26T12:25:02.714Z,4.80
2018-04-26T12:27:30.251Z,4.40
2018-04-26T12:29:57.800Z,4.30
2018-04-26T12:32:25.521Z,4.60
2018-04-26T12:34:53.070Z,4.67
2018-04-26T12:37:20.633Z,5.03
2018-04-26T12:39:48.192Z,5.27
2018-04-26T12:42:15.813Z,5.13
2018-04-26T12:44:43.341Z,4.67
2018-04-26T12:47:11.213Z,4.50
2018-04-26T12:49:38.741Z,4.30
2018-04-26T12:52:06.292Z,4.63
2018-04-26T12:54:33.863Z,4.47
2018-04-26T12:57:01.408Z,4.77
2018-04-26T12:59:28.963Z,8.53
2018-04-26T13:01:56.560Z,4.40
2018-04-26T13:04:24.120Z,4.47
2018-04-26T13:06:51.683Z,5.70
2018-04-26T13:09:19.281Z,6.10
2018-04-26T13:11:46.832Z,5.70
2018-04-26T13:14:14.380Z,4.80
2018-04-26T13:16:42.125Z,4.93
2018-04-26T13:19:09.675Z,4.80
2018-04-26T13:21:37.227Z,4.60
2018-04-26T13:24:04.819Z,6.33
2018-04-26T13:26:32.370Z,4.30
2018-04-26T13:28:59.940Z,5.17
2018-04-26T13:31:27.538Z,5.33
2018-04-26T13:33:55.095Z,4.67
2018-04-26T13:36:22.719Z,5.10
2018-04-26T13:38:50.338Z,4.90
2018-04-26T13:41:17.884Z,5.23
2018-04-26T13:43:45.436Z,4.57
2018-04-26T13:46:13.092Z,4.57
2018-04-26T13:48:40.585Z,4.43
2018-04-26T13:51:08.141Z,6.07
2018-04-26T13:53:35.731Z,4.93
2018-04-26T13:56:03.275Z,5.43
2018-04-26T13:58:30.833Z,5.20
2018-04-26T14:00:59.639Z,5.87
2018-04-26T14:03:27.188Z,5.03
2018-04-26T14:05:54.744Z,4.90
2018-04-26T14:08:22.319Z,4.73
2018-04-26T14:10:49.871Z,4.70
2018-04-26T14:13:17.487Z,4.97
2018-04-26T14:15:45.079Z,4.87
2018-04-26T14:18:12.627Z,5.20
2018-04-26T14:20:40.186Z,5.47
2018-04-26T14:23:07.942Z,4.93
2018-04-26T14:25:35.488Z,4.53
2018-04-26T14:28:03.033Z,5.17
2018-04-26T14:30:30.599Z,4.93
2018-04-26T14:32:58.164Z,4.90
2018-04-26T14:35:25.727Z,4.87
2018-04-26T14:37:53.532Z,5.30
2018-04-26T14:40:21.084Z,4.60
2018-04-26T14:42:48.625Z,5.07
2018-04-26T14:45:16.248Z,5.37
2018-04-26T14:47:43.795Z,4.80
2018-04-26T14:50:11.332Z,5.23
2018-04-26T14:52:38.892Z,5.07
2018-04-26T14:55:06.453Z,5.60
2018-04-26T14:57:34.169Z,5.47
2018-04-26T15:00:01.729Z,5.67
2018-04-26T15:02:29.292Z,5.63
2018-04-26T15:04:56.876Z,5.83
2018-04-26T15:07:24.449Z,5.50
2018-04-26T15:09:51.989Z,5.50
2018-04-26T15:12:19.789Z,5.37
2018-04-26T15:14:47.345Z,8.50
2018-04-26T15:17:14.898Z,5.63
2018-04-26T15:19:42.770Z,5.67
2018-04-26T15:22:10.332Z,4.97
2018-04-26T15:24:37.893Z,11.20
2018-04-26T15:27:05.467Z,4.93
2018-04-26T15:29:33.024Z,4.97
2018-04-26T15:32:00.585Z,5.07
2018-04-26T15:34:28.343Z,7.73
2018-04-26T15:36:55.909Z,7.47
2018-04-26T15:39:23.528Z,7.40
2018-04-26T15:41:51.221Z,4.93
2018-04-26T15:44:18.845Z,7.10
2018-04-26T15:46:46.361Z,5.77
2018-04-26T15:49:13.947Z,5.63
2018-04-26T15:51:41.484Z,5.37
2018-04-26T15:54:20.721Z,5.27
2018-04-26T15:57:01.254Z,5.57
2018-04-26T15:59:40.581Z,5.40
2018-04-26T16:02:26.323Z,4.47
2018-04-26T16:08:23.541Z,5.53
2018-04-26T16:11:08.608Z,4.97
2018-04-26T16:13:53.592Z,4.50
2018-04-26T16:16:38.356Z,4.77
2018-04-26T16:19:28.084Z,4.53
2018-04-26T16:22:13.136Z,5.23
2018-04-26T16:24:54.336Z,4.47
2018-04-26T16:27:48.508Z,4.77
2018-04-26T16:30:28.363Z,4.37
2018-04-26T16:33:08.561Z,3.93
2018-04-26T16:35:47.767Z,4.37
2018-04-26T16:38:27.106Z,4.77
2018-04-26T16:40:54.665Z,5.27
2018-04-26T16:43:22.210Z,4.80
2018-04-26T16:45:49.805Z,5.17
2018-04-26T16:48:17.390Z,5.40
2018-04-26T16:50:44.952Z,5.33
2018-04-26T16:53:12.491Z,4.80
2018-04-26T16:55:40.065Z,4.70
2018-04-26T16:58:07.651Z,5.27
2018-04-26T17:00:35.203Z,4.87
2018-04-26T17:03:02.752Z,4.90
2018-04-26T17:05:30.353Z,5.20
2018-04-26T17:07:57.902Z,4.83
2018-04-26T17:10:26.775Z,5.80
2018-04-26T17:12:54.661Z,5.60
2018-04-26T17:15:22.260Z,5.83
2018-04-26T17:17:49.778Z,5.70
2018-04-26T17:20:17.368Z,5.40
2018-04-26T17:22:44.926Z,6.07
2018-04-26T17:25:12.476Z,6.37
2018-04-26T17:27:40.351Z,6.20
2018-04-26T17:30:07.902Z,5.47
2018-04-26T17:32:35.454Z,5.57
2018-04-26T17:35:03.046Z,6.10
2018-04-26T17:37:30.593Z,5.43
2018-04-26T17:39:58.139Z,6.30
2018-04-26T17:42:25.728Z,6.07
2018-04-26T17:44:53.268Z,5.70
2018-04-26T17:47:20.819Z,5.83
2018-04-26T17:49:48.425Z,6.00
2018-04-26T17:52:15.968Z,5.57
2018-04-26T17:54:44.110Z,11.17
2018-04-26T17:57:11.752Z,9.80
2018-04-26T17:59:39.303Z,8.83
2018-04-26T18:02:06.881Z,6.50
2018-04-26T18:04:34.666Z,6.37
2018-04-26T18:07:02.230Z,5.60
2018-04-26T18:09:29.800Z,6.50
2018-04-26T18:11:57.487Z,5.60
2018-04-26T18:14:25.036Z,5.10
2018-04-26T18:16:53.773Z,4.93
2018-04-26T18:19:21.501Z,5.43
2018-04-26T18:21:49.057Z,5.23
2018-04-26T18:24:16.613Z,5.60
2018-04-26T18:26:44.350Z,4.93
2018-04-26T18:29:11.941Z,5.70
2018-04-26T18:31:39.484Z,5.07
2018-04-26T18:34:07.338Z,5.57
2018-04-26T18:36:34.872Z,5.40
2018-04-26T18:39:02.458Z,5.57
2018-04-26T18:41:30.371Z,5.37
2018-04-26T18:43:57.918Z,5.87
2018-04-26T18:46:25.500Z,5.17
2018-04-26T18:48:53.089Z,5.43
2018-04-26T18:51:20.693Z,5.57
2018-04-26T18:53:48.197Z,6.10
2018-04-26T18:56:15.891Z,5.90
2018-04-26T18:58:43.449Z,6.03
2018-04-26T19:01:11.008Z,6.83
2018-04-26T19:03:38.744Z,6.80
2018-04-26T19:06:06.308Z,6.63
2018-04-26T19:08:33.857Z,7.40
2018-04-26T19:11:01.448Z,7.40
2018-04-26T19:13:29.020Z,6.70
2018-04-26T19:15:56.569Z,7.70
2018-04-26T19:18:24.166Z,7.77
2018-04-26T19:20:51.801Z,6.97
2018-04-26T19:23:19.372Z,6.63
2018-04-26T19:25:47.183Z,7.23
2018-04-26T19:28:14.734Z,7.40
2018-04-26T19:30:42.276Z,6.77
2018-04-26T19:33:09.856Z,6.87
2018-04-26T19:35:37.401Z,6.97
2018-04-26T19:38:04.966Z,7.13
2018-04-26T19:40:32.704Z,6.40
2018-04-26T19:43:00.247Z,7.20
2018-04-26T19:45:27.935Z,7.97
2018-04-26T19:47:55.652Z,6.90
2018-04-26T19:50:23.197Z,6.83
2018-04-26T19:52:50.736Z,6.60
2018-04-26T19:55:18.327Z,6.63
2018-04-26T19:57:45.925Z,6.97
2018-04-26T20:00:13.437Z,6.67
2018-04-26T20:02:41.152Z,6.83
2018-04-26T20:05:08.692Z,6.57
2018-04-26T20:07:36.223Z,6.20
2018-04-26T20:10:03.879Z,6.80
2018-04-26T20:12:31.418Z,7.07
2018-04-26T20:14:58.965Z,7.80
2018-04-26T20:17:26.640Z,7.83
2018-04-26T20:19:54.176Z,6.43
2018-04-26T20:22:21.711Z,6.87
2018-04-26T20:24:49.440Z,6.53
2018-04-26T20:27:16.989Z,6.43
2018-04-26T20:29:44.527Z,6.23
2018-04-26T20:32:12.107Z,6.70
2018-04-26T20:34:39.648Z,6.40
2018-04-26T20:37:07.197Z,6.70
2018-04-26T20:39:34.936Z,6.70
2018-04-26T20:42:02.497Z,6.93
2018-04-26T20:44:41.736Z,6.57
2018-04-26T20:47:09.279Z,6.33
2018-04-26T20:49:36.852Z,6.60
2018-04-26T20:52:04.406Z,6.77
2018-04-26T20:54:31.949Z,6.37
2018-04-26T20:56:59.521Z,6.63
2018-04-26T20:59:27.092Z,6.33
2018-04-26T21:01:54.647Z,6.53
2018-04-26T21:04:22.515Z,6.23
2018-04-26T21:06:50.059Z,6.13
2018-04-26T21:09:17.597Z,6.53
2018-04-26T21:11:45.169Z,6.33
2018-04-26T21:14:12.734Z,6.30
2018-04-26T21:16:40.271Z,6.87
2018-04-26T21:19:07.882Z,6.43
2018-04-26T21:21:35.431Z,6.03
2018-04-26T21:24:02.985Z,6.13
2018-04-26T21:26:30.738Z,6.90
2018-04-26T21:28:58.278Z,6.47
2018-04-26T21:31:25.824Z,6.40
2018-04-26T21:33:53.397Z,5.73
2018-04-26T21:36:20.961Z,5.63
2018-04-26T21:38:48.503Z,6.40
2018-04-26T21:41:16.227Z,6.10
2018-04-26T21:43:43.774Z,6.23
2018-04-26T21:46:11.318Z,6.30
2018-04-26T21:48:39.161Z,6.57
2018-04-26T21:51:12.212Z,6.00
2018-04-26T21:53:45.426Z,5.90
2018-04-26T21:56:18.491Z,6.10
2018-04-26T21:58:51.952Z,6.00
2018-04-26T22:01:25.115Z,6.07
2018-04-26T22:07:00.132Z,5.90
2018-04-26T22:09:27.702Z,6.83
2018-04-26T22:11:55.252Z,5.97
2018-04-26T22:14:22.799Z,6.27
2018-04-26T22:16:50.375Z,5.73
2018-04-26T22:19:17.916Z,5.63
2018-04-26T22:21:45.449Z,5.93
2018-04-26T22:24:13.317Z,6.20
2018-04-26T22:26:40.902Z,5.97
2018-04-26T22:29:08.438Z,5.67
2018-04-26T22:31:36.147Z,5.93
2018-04-26T22:34:03.691Z,6.63
2018-04-26T22:36:31.243Z,6.23
2018-04-26T22:38:58.834Z,6.50
2018-04-26T22:41:26.381Z,5.77
2018-04-26T22:43:53.973Z,5.80
2018-04-26T22:46:21.556Z,6.30
2018-04-26T22:48:49.156Z,6.13
2018-04-26T22:51:16.686Z,5.43
2018-04-26T22:53:44.235Z,6.17
2018-04-26T22:56:11.773Z,5.87
2018-04-26T22:58:39.371Z,6.20
2018-04-26T23:01:06.913Z,5.83
2018-04-26T23:03:34.463Z,6.10
2018-04-26T23:06:02.020Z,5.80
2018-04-26T23:08:29.555Z,6.40
2018-04-26T23:10:57.099Z,6.50
2018-04-26T23:13:24.768Z,5.50
2018-04-26T23:15:52.301Z,6.27
2018-04-26T23:18:19.840Z,6.00
2018-04-26T23:20:47.650Z,6.07
2018-04-26T23:23:15.191Z,6.13
2018-04-26T23:25:42.733Z,6.50
2018-04-26T23:28:10.306Z,6.00
2018-04-26T23:30:37.838Z,6.23
2018-04-26T23:33:05.384Z,6.90
2018-04-26T23:35:32.953Z,6.30
2018-04-26T23:38:00.512Z,6.27
2018-04-26T23:40:28.051Z,6.17
2018-04-26T23:42:55.629Z,6.60
2018-04-26T23:45:23.171Z,6.80
2018-04-26T23:47:50.711Z,7.10
2018-04-26T23:50:18.397Z,7.10
2018-04-26T23:52:45.930Z,6.93
2018-04-26T23:55:13.497Z,6.60
2018-04-26T23:57:41.186Z,6.13
